createdAt,value
2022-07-29T00:00:14.937Z,1.48
2022-07-29T00:02:41.838Z,1.83
2022-07-29T00:05:09.627Z,2.15
2022-07-29T00:07:36.462Z,1.65
2022-07-29T00:10:03.388Z,1.90
2022-07-29T00:12:30.116Z,2.10
2022-07-29T00:14:58.155Z,1.85
2022-07-29T00:17:26.270Z,1.92
2022-07-29T00:19:53.143Z,1.83
2022-07-29T00:22:21.040Z,2.00
2022-07-29T00:24:51.354Z,1.95
2022-07-29T00:27:18.844Z,1.45
2022-07-29T00:29:45.761Z,1.80
2022-07-29T00:32:12.801Z,1.50
2022-07-29T00:34:58.112Z,1.52
2022-07-29T00:37:24.927Z,2.03
2022-07-29T00:39:51.626Z,1.80
2022-07-29T00:42:18.802Z,1.63
2022-07-29T00:44:45.368Z,1.70
2022-07-29T00:47:12.832Z,1.70
2022-07-29T00:49:41.616Z,1.70
2022-07-29T00:52:10.221Z,1.70
2022-07-29T00:54:44.216Z,1.75
2022-07-29T00:57:12.430Z,1.42
2022-07-29T01:00:00.210Z,1.80
2022-07-29T01:02:28.193Z,1.50
2022-07-29T01:04:54.941Z,1.65
2022-07-29T01:07:21.743Z,2.00
2022-07-29T01:09:48.739Z,1.60
2022-07-29T01:12:19.356Z,2.10
2022-07-29T01:14:47.571Z,1.63
2022-07-29T01:17:52.563Z,1.80
2022-07-29T01:20:48.080Z,1.70
2022-07-29T01:26:05.133Z,1.70
2022-07-29T01:29:07.654Z,1.70
2022-07-29T01:32:03.527Z,1.88
2022-07-29T01:36:49.830Z,2.15
2022-07-29T01:39:41.403Z,2.08
2022-07-29T01:42:08.167Z,1.60
2022-07-29T01:44:40.844Z,1.90
2022-07-29T01:47:15.831Z,1.92
2022-07-29T01:49:47.269Z,1.88
2022-07-29T01:52:32.294Z,2.50
2022-07-29T01:55:03.848Z,1.60
2022-07-29T01:57:35.041Z,2.00
2022-07-29T02:00:02.223Z,1.80
2022-07-29T02:02:31.363Z,1.80
2022-07-29T02:05:00.016Z,2.25
2022-07-29T02:07:30.571Z,2.08
2022-07-29T02:09:59.357Z,2.00
2022-07-29T02:12:27.131Z,2.45
2022-07-29T02:14:55.630Z,1.90
2022-07-29T02:17:27.282Z,2.20
2022-07-29T02:19:58.580Z,2.03
2022-07-29T02:22:27.747Z,2.33
2022-07-29T02:24:54.822Z,2.40
2022-07-29T02:27:22.031Z,1.85
2022-07-29T02:29:50.249Z,1.75
2022-07-29T02:32:17.764Z,3.10
2022-07-29T02:34:45.901Z,2.10
2022-07-29T02:37:13.666Z,2.33
2022-07-29T02:39:43.707Z,2.00
2022-07-29T02:42:15.847Z,1.83
2022-07-29T02:44:43.096Z,2.08
2022-07-29T02:47:41.481Z,1.98
2022-07-29T02:50:14.694Z,2.25
2022-07-29T02:53:04.424Z,1.93
2022-07-29T02:55:35.003Z,2.08
2022-07-29T02:58:33.037Z,1.90
2022-07-29T03:01:04.275Z,2.70
2022-07-29T03:03:38.593Z,2.28
2022-07-29T03:06:06.987Z,1.83
2022-07-29T03:08:35.262Z,2.92
2022-07-29T03:11:02.718Z,2.17
2022-07-29T03:13:31.330Z,2.33
2022-07-29T03:15:59.015Z,2.20
2022-07-29T03:18:26.879Z,2.20
2022-07-29T03:20:53.902Z,2.40
2022-07-29T03:23:23.749Z,2.38
2022-07-29T03:25:51.249Z,2.13
2022-07-29T03:28:18.034Z,2.13
2022-07-29T03:30:46.325Z,2.33
2022-07-29T03:33:13.717Z,2.70
2022-07-29T03:37:37.639Z,2.10
2022-07-29T03:40:08.605Z,2.20
2022-07-29T03:42:39.258Z,2.42
2022-07-29T03:45:13.611Z,1.90
2022-07-29T03:48:00.553Z,2.50
2022-07-29T03:50:38.387Z,1.90
2022-07-29T03:53:10.205Z,2.05
2022-07-29T03:55:48.562Z,2.17
2022-07-29T03:58:16.645Z,2.40
2022-07-29T04:00:45.098Z,2.28
2022-07-29T04:03:20.845Z,2.03
2022-07-29T04:05:59.748Z,2.25
2022-07-29T04:08:31.099Z,2.88
2022-07-29T04:11:18.426Z,2.28
2022-07-29T04:13:45.300Z,2.20
2022-07-29T04:16:14.680Z,2.35
2022-07-29T04:19:05.651Z,2.28
2022-07-29T04:21:41.895Z,2.45
2022-07-29T04:24:10.592Z,2.53
2022-07-29T04:26:40.298Z,2.92
2022-07-29T04:29:13.264Z,2.80
2022-07-29T04:32:07.034Z,3.08
2022-07-29T04:34:36.993Z,3.10
2022-07-29T04:37:06.295Z,3.72
2022-07-29T04:39:32.985Z,2.88
2022-07-29T04:41:59.711Z,1.67
2022-07-29T04:44:29.163Z,2.05
2022-07-29T04:46:56.179Z,2.47
2022-07-29T04:49:29.090Z,2.22
2022-07-29T04:51:56.181Z,2.10
2022-07-29T04:54:22.997Z,2.38
2022-07-29T04:56:49.858Z,2.00
2022-07-29T04:59:16.687Z,1.73
2022-07-29T05:01:43.978Z,1.95
2022-07-29T05:04:14.364Z,2.63
2022-07-29T05:06:41.294Z,2.22
2022-07-29T05:09:08.296Z,2.13
2022-07-29T05:11:34.956Z,1.77
2022-07-29T05:14:01.845Z,1.77
2022-07-29T05:16:29.019Z,2.13
2022-07-29T05:18:55.986Z,1.90
2022-07-29T05:21:22.672Z,1.90
2022-07-29T05:23:49.365Z,2.70
2022-07-29T05:26:16.363Z,1.50
2022-07-29T05:28:43.352Z,1.90
2022-07-29T05:31:10.608Z,1.92
2022-07-29T05:33:40.692Z,1.88
2022-07-29T05:38:38.835Z,2.28
2022-07-29T05:41:09.132Z,2.03
2022-07-29T05:43:37.891Z,1.92
2022-07-29T05:46:04.655Z,1.65
2022-07-29T05:48:31.281Z,2.15
2022-07-29T05:50:57.923Z,2.35
2022-07-29T05:53:24.819Z,1.95
2022-07-29T05:55:53.095Z,2.00
2022-07-29T05:58:19.930Z,2.35
2022-07-29T06:00:47.124Z,1.80
2022-07-29T06:03:13.891Z,1.60
2022-07-29T06:05:40.643Z,2.15
2022-07-29T06:08:08.367Z,2.20
2022-07-29T06:10:38.533Z,2.30
2022-07-29T06:13:05.633Z,2.05
2022-07-29T06:15:32.353Z,2.15
2022-07-29T06:18:01.390Z,2.10
2022-07-29T06:20:32.699Z,2.20
2022-07-29T06:23:00.264Z,2.05
2022-07-29T06:25:27.510Z,1.92
2022-07-29T06:27:54.502Z,1.58
2022-07-29T06:30:21.140Z,1.58
2022-07-29T06:32:48.300Z,1.40
2022-07-29T06:35:41.395Z,1.50
2022-07-29T06:38:02.051Z,1.40
2022-07-29T06:40:47.765Z,1.50
2022-07-29T06:43:14.468Z,1.38
2022-07-29T06:45:42.562Z,1.27
2022-07-29T06:48:10.616Z,1.10
2022-07-29T06:50:37.310Z,1.02
2022-07-29T06:53:04.912Z,1.10
2022-07-29T06:55:31.719Z,1.00
2022-07-29T06:57:58.327Z,1.27
2022-07-29T07:00:25.067Z,0.90
2022-07-29T07:02:51.848Z,0.85
2022-07-29T07:05:18.415Z,0.90
2022-07-29T07:07:44.987Z,1.02
2022-07-29T07:10:11.589Z,1.45
2022-07-29T07:12:38.172Z,1.02
2022-07-29T07:15:05.460Z,0.90
2022-07-29T07:17:32.099Z,0.80
2022-07-29T07:19:58.674Z,1.02
2022-07-29T07:22:25.237Z,1.00
2022-07-29T07:24:51.909Z,1.05
2022-07-29T07:27:18.571Z,1.23
2022-07-29T07:29:45.181Z,0.90
2022-07-29T07:32:12.273Z,0.80
2022-07-29T07:34:39.141Z,1.33
2022-07-29T07:39:37.427Z,1.05
2022-07-29T07:42:04.206Z,0.90
2022-07-29T07:44:30.844Z,1.40
2022-07-29T07:46:57.510Z,1.05
2022-07-29T07:49:30.468Z,0.70
2022-07-29T07:51:57.362Z,1.00
2022-07-29T07:54:24.249Z,1.10
2022-07-29T07:56:53.350Z,0.95
2022-07-29T07:59:20.195Z,0.90
2022-07-29T08:01:54.929Z,1.20
2022-07-29T08:04:27.538Z,1.10
2022-07-29T08:06:56.399Z,1.02
2022-07-29T08:09:29.651Z,0.90
2022-07-29T08:11:57.795Z,0.95
2022-07-29T08:14:24.488Z,1.10
2022-07-29T08:16:52.211Z,1.00
2022-07-29T08:19:18.912Z,1.20
2022-07-29T08:21:45.543Z,1.23
2022-07-29T08:24:30.771Z,1.17
2022-07-29T08:26:57.336Z,1.08
2022-07-29T08:29:24.089Z,1.08
2022-07-29T08:31:51.083Z,1.20
2022-07-29T08:34:17.950Z,1.65
2022-07-29T08:36:44.523Z,1.40
2022-07-29T08:39:16.857Z,1.23
2022-07-29T08:41:56.818Z,1.15
2022-07-29T08:44:29.733Z,1.08
2022-07-29T08:46:58.302Z,1.50
2022-07-29T08:49:25.163Z,1.17
2022-07-29T08:51:52.708Z,1.25
2022-07-29T08:54:19.735Z,1.08
2022-07-29T08:56:50.948Z,1.30
2022-07-29T08:59:22.171Z,0.90
2022-07-29T09:01:49.876Z,1.02
2022-07-29T09:04:19.732Z,1.33
2022-07-29T09:06:49.251Z,1.17
2022-07-29T09:09:16.174Z,1.20
2022-07-29T09:11:43.371Z,1.27
2022-07-29T09:14:13.348Z,1.00
2022-07-29T09:16:53.764Z,1.10
2022-07-29T09:19:29.474Z,1.30
2022-07-29T09:22:03.438Z,1.08
2022-07-29T09:24:39.906Z,0.93
2022-07-29T09:27:18.645Z,0.85
2022-07-29T09:29:45.275Z,1.38
2022-07-29T09:32:12.023Z,1.23
2022-07-29T09:34:38.741Z,1.20
2022-07-29T09:40:38.557Z,1.10
2022-07-29T09:43:14.729Z,1.00
2022-07-29T09:45:41.805Z,1.13
2022-07-29T09:48:17.012Z,1.13
2022-07-29T09:50:45.683Z,0.75
2022-07-29T09:53:12.477Z,1.70
2022-07-29T09:55:52.134Z,1.90
2022-07-29T09:58:20.414Z,0.88
2022-07-29T10:00:48.622Z,2.55
2022-07-29T10:03:16.759Z,1.45
2022-07-29T10:05:44.738Z,0.77
2022-07-29T10:08:13.486Z,1.30
2022-07-29T10:10:43.176Z,1.20
2022-07-29T10:13:15.683Z,1.20
2022-07-29T10:15:46.370Z,1.10
2022-07-29T10:18:14.945Z,1.38
2022-07-29T10:20:42.231Z,1.08
2022-07-29T10:23:10.205Z,1.00
2022-07-29T10:25:36.912Z,1.23
2022-07-29T10:28:03.878Z,1.20
2022-07-29T10:30:30.587Z,1.60
2022-07-29T10:33:35.554Z,1.85
2022-07-29T10:36:32.940Z,1.20
2022-07-29T10:39:15.537Z,1.60
2022-07-29T10:42:03.694Z,1.38
2022-07-29T10:44:30.889Z,1.48
2022-07-29T10:46:58.658Z,1.30
2022-07-29T10:49:31.111Z,1.27
2022-07-29T10:52:02.246Z,1.20
2022-07-29T10:54:36.336Z,1.55
2022-07-29T10:57:21.656Z,1.58
2022-07-29T11:00:02.028Z,1.33
2022-07-29T11:02:42.097Z,1.30
2022-07-29T11:05:20.609Z,1.38
2022-07-29T11:08:19.523Z,1.33
2022-07-29T11:10:49.120Z,1.25
2022-07-29T11:13:52.393Z,1.80
2022-07-29T11:19:13.922Z,1.30
2022-07-29T11:21:54.308Z,1.35
2022-07-29T11:24:32.180Z,1.70
2022-07-29T11:27:11.300Z,1.35
2022-07-29T11:29:52.051Z,1.50
2022-07-29T11:32:23.160Z,1.50
2022-07-29T11:35:17.108Z,1.45
2022-07-29T11:41:38.343Z,1.65
2022-07-29T11:44:06.804Z,1.92
2022-07-29T11:46:50.541Z,1.65
2022-07-29T11:49:32.341Z,2.65
2022-07-29T11:52:02.846Z,1.30
2022-07-29T11:54:57.215Z,1.90
2022-07-29T11:57:22.602Z,1.85
2022-07-29T11:59:49.264Z,2.00
2022-07-29T12:02:36.934Z,1.92
2022-07-29T12:05:10.440Z,1.85
2022-07-29T12:07:39.401Z,1.90
2022-07-29T12:10:11.660Z,2.10
2022-07-29T12:12:53.337Z,2.08
2022-07-29T12:15:22.375Z,2.00
2022-07-29T12:17:49.435Z,2.28
2022-07-29T12:20:24.519Z,2.15
2022-07-29T12:22:52.084Z,2.42
2022-07-29T12:25:35.021Z,2.25
2022-07-29T12:28:03.785Z,2.40
2022-07-29T12:30:46.359Z,3.13
2022-07-29T12:33:15.238Z,2.50
2022-07-29T12:35:47.841Z,2.40
2022-07-29T12:38:22.115Z,2.30
2022-07-29T12:40:50.361Z,2.85
2022-07-29T12:43:20.083Z,2.67
2022-07-29T12:45:48.944Z,2.33
2022-07-29T12:48:17.011Z,2.50
2022-07-29T12:51:15.426Z,2.72
2022-07-29T12:53:42.515Z,2.35
2022-07-29T12:59:19.130Z,2.25
2022-07-29T13:01:49.044Z,2.30
2022-07-29T13:04:33.444Z,2.47
2022-07-29T13:07:04.917Z,2.97
2022-07-29T13:09:40.510Z,2.72
2022-07-29T13:12:09.376Z,3.55
2022-07-29T13:14:38.909Z,1.92
2022-07-29T13:17:14.470Z,2.97
2022-07-29T13:19:42.493Z,2.70
2022-07-29T13:22:15.014Z,2.55
2022-07-29T13:24:59.499Z,2.40
2022-07-29T13:27:28.700Z,2.63
2022-07-29T13:29:58.680Z,2.72
2022-07-29T13:32:28.640Z,2.80
2022-07-29T13:35:04.923Z,2.92
2022-07-29T13:37:35.127Z,2.67
2022-07-29T13:42:37.777Z,2.78
2022-07-29T13:45:05.610Z,3.22
2022-07-29T13:47:33.377Z,2.38
2022-07-29T13:50:06.224Z,2.70
2022-07-29T13:52:34.531Z,3.42
2022-07-29T13:55:01.676Z,3.03
2022-07-29T13:57:28.884Z,2.95
2022-07-29T13:59:56.266Z,2.15
2022-07-29T14:02:25.769Z,2.42
2022-07-29T14:04:56.816Z,2.47
2022-07-29T14:07:24.424Z,2.80
2022-07-29T14:09:51.785Z,2.72
2022-07-29T14:12:18.983Z,2.20
2022-07-29T14:14:47.379Z,2.08
2022-07-29T14:17:14.312Z,2.78
2022-07-29T14:19:41.089Z,2.08
2022-07-29T14:22:09.692Z,2.40
2022-07-29T14:24:37.945Z,2.33
2022-07-29T14:27:06.288Z,2.20
2022-07-29T14:29:37.414Z,2.33
2022-07-29T14:32:11.351Z,1.98
2022-07-29T14:34:39.587Z,2.28
2022-07-29T14:37:07.083Z,2.30
2022-07-29T14:39:39.295Z,2.97
2022-07-29T14:42:09.129Z,2.50
2022-07-29T14:44:35.946Z,2.33
2022-07-29T14:47:07.785Z,2.78
2022-07-29T14:49:35.185Z,2.75
2022-07-29T14:52:01.926Z,2.30
2022-07-29T14:54:28.627Z,13.93
2022-07-29T14:56:58.289Z,3.17
2022-07-29T14:59:26.060Z,2.00
2022-07-29T15:01:52.792Z,2.65
2022-07-29T15:04:19.529Z,2.58
2022-07-29T15:06:46.429Z,2.50
2022-07-29T15:09:13.888Z,2.78
2022-07-29T15:11:40.519Z,2.50
2022-07-29T15:14:07.348Z,1.85
2022-07-29T15:16:37.240Z,2.78
2022-07-29T15:19:04.929Z,2.85
2022-07-29T15:21:31.702Z,4.10
2022-07-29T15:23:58.306Z,2.42
2022-07-29T15:26:24.907Z,2.03
2022-07-29T15:28:52.100Z,2.63
2022-07-29T15:31:20.054Z,2.53
2022-07-29T15:33:46.775Z,3.20
2022-07-29T15:36:35.653Z,2.47
2022-07-29T15:39:00.573Z,2.70
2022-07-29T15:43:44.816Z,2.30
2022-07-29T15:46:33.525Z,2.53
2022-07-29T15:49:00.363Z,2.50
2022-07-29T15:51:27.912Z,2.70
2022-07-29T15:53:55.161Z,2.75
2022-07-29T15:56:21.803Z,2.35
2022-07-29T15:58:48.851Z,2.22
2022-07-29T16:01:15.562Z,2.72
2022-07-29T16:03:46.116Z,2.47
2022-07-29T16:06:13.422Z,2.60
2022-07-29T16:08:40.183Z,2.28
2022-07-29T16:11:06.816Z,2.38
2022-07-29T16:13:33.519Z,2.53
2022-07-29T16:16:02.622Z,2.60
2022-07-29T16:18:30.910Z,2.53
2022-07-29T16:20:58.060Z,2.47
2022-07-29T16:23:24.890Z,2.33
2022-07-29T16:25:59.594Z,2.30
2022-07-29T16:28:27.098Z,3.35
2022-07-29T16:30:53.697Z,2.80
2022-07-29T16:33:20.324Z,2.83
2022-07-29T16:35:46.939Z,2.50
2022-07-29T16:38:13.478Z,2.25
2022-07-29T16:40:40.263Z,2.78
2022-07-29T16:43:06.945Z,2.40
2022-07-29T16:45:45.360Z,2.53
2022-07-29T16:48:14.557Z,2.67
2022-07-29T16:50:43.205Z,2.08
2022-07-29T16:53:10.779Z,2.30
2022-07-29T16:55:37.849Z,2.30
2022-07-29T16:58:04.914Z,2.65
2022-07-29T17:00:31.952Z,2.97
2022-07-29T17:03:00.102Z,2.67
2022-07-29T17:05:27.948Z,2.53
2022-07-29T17:07:55.050Z,2.40
2022-07-29T17:10:22.422Z,2.83
2022-07-29T17:12:49.139Z,2.83
2022-07-29T17:15:18.657Z,2.60
2022-07-29T17:17:55.047Z,2.58
2022-07-29T17:20:23.563Z,2.45
2022-07-29T17:22:50.334Z,2.38
2022-07-29T17:25:20.446Z,1.80
2022-07-29T17:27:49.821Z,2.40
2022-07-29T17:30:17.303Z,2.03
2022-07-29T17:32:44.181Z,2.72
2022-07-29T17:35:34.241Z,2.63
2022-07-29T17:38:01.133Z,2.03
2022-07-29T17:40:28.052Z,2.28
2022-07-29T17:44:36.927Z,3.30
2022-07-29T17:47:04.997Z,2.45
2022-07-29T17:49:32.484Z,8.38
2022-07-29T17:52:01.073Z,6.82
2022-07-29T17:54:27.977Z,8.60
2022-07-29T17:56:54.734Z,7.03
2022-07-29T17:59:21.949Z,7.78
2022-07-29T18:01:48.599Z,5.95
2022-07-29T18:04:20.242Z,3.95
2022-07-29T18:06:46.902Z,3.67
2022-07-29T18:09:16.636Z,4.03
2022-07-29T18:11:44.529Z,6.57
2022-07-29T18:14:13.495Z,4.57
2022-07-29T18:16:40.738Z,3.28
2022-07-29T18:19:07.723Z,3.22
2022-07-29T18:21:43.777Z,3.20
2022-07-29T18:24:18.688Z,3.65
2022-07-29T18:26:45.395Z,3.05
2022-07-29T18:29:12.476Z,2.40
2022-07-29T18:31:41.201Z,2.75
2022-07-29T18:34:17.178Z,2.50
2022-07-29T18:36:43.963Z,2.50
2022-07-29T18:39:11.367Z,2.40
2022-07-29T18:41:50.250Z,2.45
2022-07-29T18:44:22.665Z,2.22
2022-07-29T18:46:51.324Z,2.05
2022-07-29T18:49:18.837Z,2.15
2022-07-29T18:51:45.563Z,2.03
2022-07-29T18:54:12.534Z,1.80
2022-07-29T18:56:39.372Z,2.67
2022-07-29T18:59:06.042Z,2.33
2022-07-29T19:01:32.955Z,2.30
2022-07-29T19:04:00.734Z,1.90
2022-07-29T19:09:11.013Z,2.08
2022-07-29T19:11:38.949Z,2.00
2022-07-29T19:14:06.497Z,1.90
2022-07-29T19:16:33.239Z,2.00
2022-07-29T19:19:01.174Z,1.88
2022-07-29T19:21:28.783Z,1.90
2022-07-29T19:24:06.461Z,2.05
2022-07-29T19:26:36.829Z,2.13
2022-07-29T19:29:04.053Z,1.60
2022-07-29T19:31:31.118Z,1.83
2022-07-29T19:33:57.784Z,1.77
2022-07-29T19:36:24.385Z,1.90
2022-07-29T19:38:51.143Z,1.45
2022-07-29T19:41:17.775Z,1.70
2022-07-29T19:45:46.331Z,1.77
2022-07-29T19:48:13.034Z,1.85
2022-07-29T19:56:00.907Z,1.58
2022-07-29T19:58:28.112Z,2.08
2022-07-29T20:00:55.140Z,1.48
2022-07-29T20:03:22.231Z,1.85
2022-07-29T20:05:51.467Z,2.25
2022-07-29T20:08:18.983Z,1.83
2022-07-29T20:10:46.002Z,1.67
2022-07-29T20:13:13.232Z,1.88
2022-07-29T20:15:40.374Z,1.83
2022-07-29T20:18:07.276Z,1.70
2022-07-29T20:20:34.007Z,2.47
2022-07-29T20:23:02.377Z,1.92
2022-07-29T20:25:29.211Z,2.28
2022-07-29T20:27:56.090Z,1.75
2022-07-29T20:30:23.496Z,1.88
2022-07-29T20:32:50.838Z,3.42
2022-07-29T20:35:19.847Z,2.22
2022-07-29T20:37:51.435Z,1.83
2022-07-29T20:40:22.682Z,1.92
2022-07-29T20:42:49.501Z,2.00
2022-07-29T20:45:26.360Z,2.53
2022-07-29T20:48:01.936Z,1.98
2022-07-29T20:50:28.893Z,2.30
2022-07-29T20:52:57.938Z,2.20
2022-07-29T20:55:24.979Z,2.65
2022-07-29T20:57:51.647Z,2.25
2022-07-29T21:00:18.531Z,2.03
2022-07-29T21:02:45.301Z,1.90
2022-07-29T21:05:12.393Z,1.80
2022-07-29T21:07:39.292Z,1.60
2022-07-29T21:10:06.534Z,1.83
2022-07-29T21:12:33.923Z,1.98
2022-07-29T21:15:05.271Z,1.45
2022-07-29T21:17:36.383Z,1.70
2022-07-29T21:20:06.783Z,1.80
2022-07-29T21:22:33.466Z,1.40
2022-07-29T21:25:00.256Z,2.03
2022-07-29T21:27:48.382Z,2.45
2022-07-29T21:30:15.646Z,2.47
2022-07-29T21:32:42.598Z,3.13
2022-07-29T21:35:14.609Z,2.70
2022-07-29T21:37:54.276Z,1.85
2022-07-29T21:40:21.100Z,1.58
2022-07-29T21:42:47.722Z,1.80
2022-07-29T21:46:37.968Z,1.70
2022-07-29T21:49:05.029Z,1.80
2022-07-29T21:51:31.779Z,1.40
2022-07-29T21:53:58.471Z,1.42
2022-07-29T21:56:27.709Z,1.80
2022-07-29T21:58:55.811Z,1.48
2022-07-29T22:01:22.583Z,1.23
2022-07-29T22:03:49.341Z,1.67
2022-07-29T22:06:18.319Z,1.45
2022-07-29T22:08:45.824Z,2.15
2022-07-29T22:11:13.201Z,1.30
2022-07-29T22:13:40.176Z,1.55
2022-07-29T22:16:07.197Z,1.45
2022-07-29T22:18:34.157Z,1.60
2022-07-29T22:21:02.868Z,1.70
2022-07-29T22:23:32.157Z,1.35
2022-07-29T22:26:03.967Z,1.40
2022-07-29T22:28:30.678Z,1.63
2022-07-29T22:30:57.379Z,1.33
2022-07-29T22:33:24.147Z,1.30
2022-07-29T22:35:50.939Z,1.60
2022-07-29T22:38:18.272Z,1.42
2022-07-29T22:40:45.229Z,1.90
2022-07-29T22:43:12.043Z,1.92
2022-07-29T22:45:38.812Z,1.33
2022-07-29T22:48:06.144Z,1.35
2022-07-29T22:50:32.920Z,1.58
2022-07-29T22:52:59.624Z,1.38
2022-07-29T22:55:26.412Z,1.60
2022-07-29T22:57:53.095Z,1.52
2022-07-29T23:00:19.779Z,1.52
2022-07-29T23:02:47.620Z,2.10
2022-07-29T23:05:16.062Z,1.60
2022-07-29T23:07:43.240Z,1.40
2022-07-29T23:10:10.216Z,1.40
2022-07-29T23:12:36.923Z,1.20
2022-07-29T23:15:04.823Z,1.33
2022-07-29T23:17:31.954Z,1.70
2022-07-29T23:20:03.645Z,1.63
2022-07-29T23:22:30.260Z,1.98
2022-07-29T23:25:00.032Z,1.17
2022-07-29T23:27:26.766Z,1.52
2022-07-29T23:29:53.504Z,1.40
2022-07-29T23:32:20.192Z,1.40
2022-07-29T23:34:47.108Z,2.17
2022-07-29T23:37:23.758Z,2.00
2022-07-29T23:39:53.487Z,1.65
2022-07-29T23:42:22.057Z,1.52
2022-07-29T23:47:39.737Z,1.42
2022-07-29T23:50:07.793Z,1.70
2022-07-29T23:52:35.664Z,1.70
2022-07-29T23:55:36.531Z,1.63
2022-07-29T23:57:49.276Z,1.88
